Address 0x571c9f83e21177197fb8bc499c48811def646225 6

Txn Hash Method
Block
From
To
Value [Txn Fee]
0xaa0b0b912638d21b5ab9ae56feffc5f048f11fb8498ac2b6d6fe5d3e5b84185dTransfer269551022022-06-29 7:47:183 days 1 hr ago0x571c9f83e21177197fb8bc499c48811def646225OUT 0x001b3b4d0f3714ca98ba10f6042daebf0b1b7b6f0 MATIC0.00180574812 34.920000001
0xb55af67e4e7290dd130b5936896c1424eb91b608ecf978c2d0ff1359c0d873ce0x46e6d115269550662022-06-29 7:44:173 days 1 hr ago0x571c9f83e21177197fb8bc499c48811def646225OUT 0x2bc353cd2b817fea666ef1ac95f17722f50a98af0 MATIC0.000156984806 2.425000098
0x5547b0082f22ed662a00c17c45a51716517ba62a6aeb8259a5687e285c39acecApprove269550602022-06-29 7:43:473 days 1 hr ago0x571c9f83e21177197fb8bc499c48811def646225OUT 0x001b3b4d0f3714ca98ba10f6042daebf0b1b7b6f0 MATIC0.000089571745 1.940000111
0xbaeee4ce46da352f30b87d88de6856e3fe288b48c0453efa70c12e5200cf66620x46e6d115269550092022-06-29 7:39:323 days 1 hr ago0x571c9f83e21177197fb8bc499c48811def646225OUT 0x2bc353cd2b817fea666ef1ac95f17722f50a98af0 MATIC0.001921132379 29.676414665
0xfc674db6e85455dfd7bb78d55f6336ce017fcbb9babdc158bf86dd7c961918d6Approve269548322022-06-29 7:24:443 days 1 hr ago0x571c9f83e21177197fb8bc499c48811def646225OUT 0x001b3b4d0f3714ca98ba10f6042daebf0b1b7b6f0 MATIC0.000063707176 2.425000042
0xd1faa513d0d67da694f19e31bcb417e4058806c96589e2f6b7be4f11a5b61858Transfer269548182022-06-29 7:23:343 days 1 hr ago0x571c9f83e21177197fb8bc499c48811def646225OUT 0x001b3b4d0f3714ca98ba10f6042daebf0b1b7b6f0 MATIC0.001533117546 29.647803113
0x86567bdd95c983375bcd1a5644980a2bfa6b4d9cff7f7a68651fd71674012b20Approve269548182022-06-29 7:23:343 days 1 hr ago0x571c9f83e21177197fb8bc499c48811def646225OUT 0x001b3b4d0f3714ca98ba10f6042daebf0b1b7b6f0 MATIC0.001348433592 29.205206567
0xa5337dce825e6a839991c73d2225e811ad76d123e19406a90c4b9a68fd8649db0x46e6d115269547302022-06-29 7:16:123 days 1 hr ago0x571c9f83e21177197fb8bc499c48811def646225OUT 0x2bc353cd2b817fea666ef1ac95f17722f50a98af0 MATIC0.002009405439 31.039999999
0x8f90e9c6551f949f8613267cfe5a7441c007ddce585c598ecaf8730582db61e1Approve269547262022-06-29 7:15:523 days 1 hr ago0x571c9f83e21177197fb8bc499c48811def646225OUT 0x001b3b4d0f3714ca98ba10f6042daebf0b1b7b6f0 MATIC0.001404516809 30.419891475
0x4bbb83faede9e42bca6c9414587feede294bf60d0dcc25826c6efc8b3eede1a70x46e6d115269546692022-06-29 7:11:063 days 2 hrs ago0x571c9f83e21177197fb8bc499c48811def646225OUT 0x2bc353cd2b817fea666ef1ac95f17722f50a98af0 MATIC0.000097104007 1.500000112
0x76a298e497a191c66ebb3065effd9fe59f94234c7703305bf6bbee4235c4868bApprove269546522022-06-29 7:09:413 days 2 hrs ago0x571c9f83e21177197fb8bc499c48811def646225OUT 0x001b3b4d0f3714ca98ba10f6042daebf0b1b7b6f0 MATIC0.000069256504 1.500000095
0x8a402f13757f79a2dfe7a6a0c8a5aca2b2ec401b39ea2c09bc226d7d48fb3bc40x46e6d115269546372022-06-29 7:08:263 days 2 hrs ago0x571c9f83e21177197fb8bc499c48811def646225OUT 0x2bc353cd2b817fea666ef1ac95f17722f50a98af0 MATIC0.000124437099 1.922224103
0x5b3a1256fe42a5669d0e97fe36f8195156fde8eb1b255af89568a99a8fa51b66Approve269544932022-06-29 6:56:133 days 2 hrs ago0x571c9f83e21177197fb8bc499c48811def646225OUT 0x001b3b4d0f3714ca98ba10f6042daebf0b1b7b6f0 MATIC0.000091495893 1.981674496
0x2fc399df01d332be24b7332775531fbd41d09228921c408b1e5db630f75b79a80x46e6d115269544752022-06-29 6:53:133 days 2 hrs ago0x571c9f83e21177197fb8bc499c48811def646225OUT 0x2bc353cd2b817fea666ef1ac95f17722f50a98af0 MATIC0.000129871854 2.00617669
0xd566093af3608ddee5d49a70e070c9fc654d497b1a6f97c85d1c243e60d0a7b2Approve269544722022-06-29 6:52:433 days 2 hrs ago0x571c9f83e21177197fb8bc499c48811def646225OUT 0x001b3b4d0f3714ca98ba10f6042daebf0b1b7b6f0 MATIC0.000092627183 2.006176682
0x36c61c9dd44a2d6bbead5d0d93835ab9e982a8b7bfff768adc72e88e3fd5c2b40x46e6d115269544342022-06-29 6:46:233 days 2 hrs ago0x571c9f83e21177197fb8bc499c48811def646225OUT 0x2bc353cd2b817fea666ef1ac95f17722f50a98af0 MATIC0.002212437837 34.176313598
0x0ac47bf12d869fe4d4df84374b31accdbbc038e38bd00f3d1fadad2e6c5e4f90Approve269544322022-06-29 6:46:033 days 2 hrs ago0x571c9f83e21177197fb8bc499c48811def646225OUT 0x001b3b4d0f3714ca98ba10f6042daebf0b1b7b6f0 MATIC0.001629196962 35.286152839
0x8da7e7fb5c0d4dcda7a0c45f1e8bdde5c0a1af723a96bfd51fb01187aa605fd50x46e6d115269543622022-06-29 6:40:063 days 2 hrs ago0x571c9f83e21177197fb8bc499c48811def646225OUT 0x2bc353cd2b817fea666ef1ac95f17722f50a98af0 MATIC0.000134826621 2.082714745
0x9e3abaa2a41446539a6e290ca8542c9bbe9390a3d3a07dc577b0b690652e034fApprove269543602022-06-29 6:39:563 days 2 hrs ago0x571c9f83e21177197fb8bc499c48811def646225OUT 0x001b3b4d0f3714ca98ba10f6042daebf0b1b7b6f0 MATIC0.000096161022 2.082714746
0xebbe58b952e1eeff18c3f9eaed77e4471a70527683ce98556731c7453b292afc0x46e6d115269543412022-06-29 6:38:213 days 2 hrs ago0x571c9f83e21177197fb8bc499c48811def646225OUT 0x2bc353cd2b817fea666ef1ac95f17722f50a98af0 MATIC0.000097104001 1.500000023
0x277521d634245a20931091722a1598ffef569681f128ba64a3e3857b99d8b5a1Approve269543342022-06-29 6:37:463 days 2 hrs ago0x571c9f83e21177197fb8bc499c48811def646225OUT 0x001b3b4d0f3714ca98ba10f6042daebf0b1b7b6f0 MATIC0.000086884589 1.881800026
0x4038150c44c4fca3ddd1a9880f77fe53ae7375caed3d4bd08c1da4732332dc350x46e6d115269543192022-06-29 6:36:313 days 2 hrs ago0x571c9f83e21177197fb8bc499c48811def646225OUT 0x2bc353cd2b817fea666ef1ac95f17722f50a98af0 MATIC0.000097104001 1.500000023
0xb42cc6e85c83474e4ad94be8290e98097c1eabc933c673d15f4f406f61e149ecApprove269543162022-06-29 6:36:163 days 2 hrs ago0x571c9f83e21177197fb8bc499c48811def646225OUT 0x001b3b4d0f3714ca98ba10f6042daebf0b1b7b6f0 MATIC0.000104266562 2.258269535
0x11623f24b040181b588623e6b24b4fa6749b2fba827dd18e3e07bfa1fbeae5f10x46e6d115269478912022-06-28 20:08:303 days 13 hrs ago0x571c9f83e21177197fb8bc499c48811def646225OUT 0x2bc353cd2b817fea666ef1ac95f17722f50a98af0 MATIC0.000316154071 4.883744304
0x8d7f111efda8baf3df41cca447f1bf82799c63a97b6c709643e419854babb35eApprove269478862022-06-28 20:08:053 days 13 hrs ago0x571c9f83e21177197fb8bc499c48811def646225OUT 0x001b3b4d0f3714ca98ba10f6042daebf0b1b7b6f0 MATIC0.000330110543 7.149737783
[ Download CSV Export 
Latest 6 internal transactions
Parent Txn Hash Block From To Value
0xf0c34df6527f2967ddc8a9624b5fc703ab7434ab87c23424ccade9429145d20d261971832022-05-04 8:40:2959 days 32 mins ago 0xd5b31fb565d608692d6422beb31bf0875dad4fc30x571c9f83e21177197fb8bc499c48811def6462250.05 MATIC
0xc16e8232c64db39fd57262624852626ea969ada30aad98f4c7f0d76369f05df3261971732022-05-04 8:38:4959 days 34 mins ago 0xf5de760f2e916647fd766b4ad9e85ff943ce3a2b0x571c9f83e21177197fb8bc499c48811def6462250.1 MATIC
0x13b0942c2d20c18c1de866d4df0da20c1b377b23b5b53109a9b29119e8d08849261698552022-05-02 9:27:2760 days 23 hrs ago 0x7f092e65c688a509737fcd8d0998dd12208f52970x571c9f83e21177197fb8bc499c48811def6462250.2 MATIC
0x1e7061b161c926b6ff0a46a195243ec68c6e79068696c49686d5d7928022ca7a261547992022-05-01 5:15:2962 days 3 hrs ago 0x7f092e65c688a509737fcd8d0998dd12208f52970x571c9f83e21177197fb8bc499c48811def6462250.2 MATIC
0x10a0f2ce1435ec56f12f3dcb2ec29d88d137fbac17cdeca0a27c6acc148f07f9261535602022-05-01 2:45:3562 days 6 hrs ago 0x7f092e65c688a509737fcd8d0998dd12208f52970x571c9f83e21177197fb8bc499c48811def6462250.2 MATIC
0x6e1ebec3cd6f0972b5ab6e0a77f9e832f49320a42a6d5d813b8a709015e91c76260801962022-04-25 11:30:1467 days 21 hrs ago 0x7f092e65c688a509737fcd8d0998dd12208f52970x571c9f83e21177197fb8bc499c48811def6462250.2 MATIC
[ Download CSV Export 
Loading

Contract Name:
0 MATIC

Compiler Version
0

Optimization Enabled:
0 MATIC

Other Settings:
-NA-
Block Transaction Gas Used Reward
Age Block Fee Address BC Fee Address Voting Power Jailed Incoming
Block Uncle Number Difficulty Gas Used Reward
Loading